Time;durP1;ratioP1;P1;durP2;ratioP2;P2;SDS_P1;SDS_P2;PMS_P1;PMS_P2;Temp;Humidity;BMP_temperature;BMP_pressure;BME280_temperature;BME280_humidity;BME280_pressure;Samples;Min_cycle;Max_cycle;Signal;HPM_P1;HPM_P2
2022/05/08 00:00:00;;;;;;;1999.90;999.90;;;13.30;99.90;;;;;;4966621;28;20034;-91
2022/05/08 00:02:26;;;;;;;1999.90;999.90;;;13.20;99.90;;;;;;4968432;28;20031;-93
2022/05/08 00:04:53;;;;;;;1999.90;999.90;;;13.20;99.90;;;;;;4965212;28;20089;-93
2022/05/08 00:07:22;;;;;;;1999.90;999.90;;;13.10;99.90;;;;;;4959108;28;20027;-94
2022/05/08 00:09:48;;;;;;;1999.90;999.90;;;13.10;99.90;;;;;;4958929;28;20027;-95
2022/05/08 00:12:16;;;;;;;1999.90;999.90;;;13.10;99.90;;;;;;4957818;28;20024;-92
2022/05/08 00:14:42;;;;;;;1999.90;999.90;;;13.10;99.90;;;;;;4964673;28;20024;-93
2022/05/08 00:17:14;;;;;;;1999.90;999.90;;;13.00;99.90;;;;;;4968123;28;20023;-93
2022/05/08 00:19:45;;;;;;;1999.90;999.90;;;13.00;99.90;;;;;;4963625;28;20027;-90
2022/05/08 00:22:11;;;;;;;1999.90;999.90;;;13.00;99.90;;;;;;4965657;28;20114;-92
2022/05/08 00:24:37;;;;;;;1999.90;999.90;;;13.00;99.90;;;;;;4964108;28;20022;-90
2022/05/08 00:27:03;;;;;;;1999.90;999.90;;;13.00;99.90;;;;;;4969413;28;20123;-90
2022/05/08 00:29:29;;;;;;;1999.90;999.90;;;12.90;99.90;;;;;;4964888;28;20558;-92
2022/05/08 00:31:54;;;;;;;1999.90;999.90;;;12.90;99.90;;;;;;4969641;28;20117;-90
2022/05/08 00:34:21;;;;;;;1999.90;999.90;;;12.90;99.90;;;;;;4961870;28;20027;-93
2022/05/08 00:36:46;;;;;;;1999.90;999.90;;;12.80;99.90;;;;;;4952169;28;20039;-93
2022/05/08 00:39:13;;;;;;;1999.90;999.90;;;12.80;99.90;;;;;;4967743;28;20471;-92
2022/05/08 00:41:39;;;;;;;1999.90;999.90;;;12.80;99.90;;;;;;4971642;28;20082;-92
2022/05/08 00:44:05;;;;;;;1999.90;999.90;;;12.80;99.90;;;;;;4970523;28;20023;-93
2022/05/08 00:46:31;;;;;;;1999.90;999.90;;;12.80;99.90;;;;;;4961929;28;20035;-91
2022/05/08 00:48:57;;;;;;;1999.90;999.90;;;12.80;99.90;;;;;;4971466;28;20462;-93
2022/05/08 00:51:24;;;;;;;1999.90;999.90;;;12.70;99.90;;;;;;4963712;28;20043;-90
2022/05/08 00:53:51;;;;;;;1999.90;999.90;;;12.70;99.90;;;;;;4967121;28;20020;-91
2022/05/08 00:56:19;;;;;;;1999.90;999.90;;;12.60;99.90;;;;;;4971991;28;20074;-92
2022/05/08 00:58:48;;;;;;;1999.90;999.90;;;12.60;99.90;;;;;;4967607;28;20023;-94
2022/05/08 01:01:14;;;;;;;1999.90;999.90;;;12.60;99.90;;;;;;4966230;28;20109;-92
2022/05/08 01:03:40;;;;;;;1999.90;999.90;;;12.50;99.90;;;;;;4964812;28;20049;-92
2022/05/08 01:06:11;;;;;;;1999.90;999.90;;;12.50;99.90;;;;;;4968349;28;20035;-93
2022/05/08 01:08:40;;;;;;;1999.90;999.90;;;12.50;99.90;;;;;;4969967;28;20027;-92
2022/05/08 01:11:07;;;;;;;1999.90;999.90;;;12.50;99.90;;;;;;4962999;28;20035;-92
2022/05/08 01:13:33;;;;;;;1999.90;999.90;;;12.40;99.90;;;;;;4962460;28;20023;-92
2022/05/08 01:16:06;;;;;;;1999.90;999.90;;;12.40;99.90;;;;;;4969878;28;20078;-93
2022/05/08 01:18:31;;;;;;;1999.90;999.90;;;12.40;99.90;;;;;;4970492;28;20054;-94
2022/05/08 01:20:57;;;;;;;1999.90;999.90;;;12.40;99.90;;;;;;4969345;28;20125;-92
2022/05/08 01:23:23;;;;;;;1999.90;999.90;;;12.40;99.90;;;;;;4970177;28;20027;-93
2022/05/08 01:25:50;;;;;;;1999.90;999.90;;;12.40;99.90;;;;;;4971334;28;20509;-92
2022/05/08 01:28:16;;;;;;;1999.90;999.90;;;12.40;99.90;;;;;;4969778;28;20030;-93
2022/05/08 01:30:43;;;;;;;1999.90;999.90;;;12.40;99.90;;;;;;4968879;28;20054;-91
2022/05/08 01:33:10;;;;;;;1999.90;999.90;;;12.30;99.90;;;;;;4960644;28;20531;-92
2022/05/08 01:35:36;;;;;;;1999.90;999.90;;;12.30;99.90;;;;;;4966337;28;20089;-93
2022/05/08 01:38:06;;;;;;;1999.90;999.90;;;12.30;99.90;;;;;;4969226;28;20023;-90
2022/05/08 01:40:32;;;;;;;1999.90;999.90;;;12.30;99.90;;;;;;4968339;28;20027;-92
2022/05/08 01:42:59;;;;;;;1999.90;999.90;;;12.20;99.90;;;;;;4970552;28;20025;-91
2022/05/08 01:45:25;;;;;;;1999.90;999.90;;;12.20;99.90;;;;;;4969077;28;20039;-93
2022/05/08 01:50:36;;;;;;;1999.90;999.90;;;12.20;99.90;;;;;;4964923;28;20041;-90
2022/05/08 01:53:02;;;;;;;1999.90;999.90;;;12.20;99.90;;;;;;4969733;28;20047;-91
2022/05/08 01:55:28;;;;;;;1999.90;999.90;;;12.20;99.90;;;;;;4969354;28;20050;-93
2022/05/08 01:57:54;;;;;;;1999.90;999.90;;;12.20;99.90;;;;;;4959813;28;20544;-90
2022/05/08 02:00:21;;;;;;;1999.90;999.90;;;12.20;99.90;;;;;;4961203;28;20126;-93
2022/05/08 02:02:48;;;;;;;1999.90;999.90;;;12.20;99.90;;;;;;4960366;28;20439;-91
2022/05/08 02:05:18;;;;;;;1999.90;999.90;;;12.20;99.90;;;;;;4962325;28;20415;-91
2022/05/08 02:07:45;;;;;;;1999.90;999.90;;;12.20;99.90;;;;;;4971551;28;20031;-91
2022/05/08 02:10:12;;;;;;;1999.90;999.90;;;12.10;99.90;;;;;;4965855;28;20114;-92
2022/05/08 02:12:38;;;;;;;1999.90;999.90;;;12.10;99.90;;;;;;4955636;29;20447;-93
2022/05/08 02:15:09;;;;;;;1999.90;999.90;;;12.10;99.90;;;;;;4967746;28;20482;-91
2022/05/08 02:17:36;;;;;;;1999.90;999.90;;;12.10;99.90;;;;;;4971308;28;20023;-92
2022/05/08 02:20:03;;;;;;;1999.90;999.90;;;12.10;99.90;;;;;;4969167;28;20070;-91
2022/05/08 02:22:29;;;;;;;1999.90;999.90;;;12.10;99.90;;;;;;4970798;28;20089;-92
2022/05/08 02:24:55;;;;;;;1999.90;999.90;;;12.10;99.90;;;;;;4965814;28;20434;-91
2022/05/08 02:27:20;;;;;;;1999.90;999.90;;;12.10;99.90;;;;;;4958319;28;20043;-91
2022/05/08 02:29:50;;;;;;;1999.90;999.90;;;12.00;99.90;;;;;;4960083;28;20471;-90
2022/05/08 02:32:17;;;;;;;1999.90;999.90;;;12.00;99.90;;;;;;4960531;28;20082;-92
2022/05/08 02:34:43;;;;;;;1999.90;999.90;;;12.00;99.90;;;;;;4959556;28;20082;-91
2022/05/08 02:37:08;;;;;;;1999.90;999.90;;;12.00;99.90;;;;;;4959397;28;20019;-93
2022/05/08 02:39:34;;;;;;;1999.90;999.90;;;11.90;99.90;;;;;;4970362;28;20030;-90
2022/05/08 02:42:00;;;;;;;1999.90;999.90;;;11.90;99.90;;;;;;4969504;28;20031;-91
2022/05/08 02:44:25;;;;;;;1999.90;999.90;;;11.90;99.90;;;;;;4959874;28;20041;-93
2022/05/08 02:46:51;;;;;;;1999.90;999.90;;;11.90;99.90;;;;;;4960108;28;20038;-91
2022/05/08 02:49:17;;;;;;;1999.90;999.90;;;11.90;99.90;;;;;;4966140;28;20078;-93
2022/05/08 02:51:42;;;;;;;1999.90;999.90;;;11.90;99.90;;;;;;4962359;28;20050;-92
2022/05/08 02:54:08;;;;;;;1999.90;999.90;;;11.80;99.90;;;;;;4967619;28;20053;-92
2022/05/08 02:59:17;;;;;;;1999.90;999.90;;;11.80;99.90;;;;;;4959772;28;20034;-91
2022/05/08 03:01:43;;;;;;;1999.90;999.90;;;11.70;99.90;;;;;;4956250;28;20035;-91
2022/05/08 03:04:09;;;;;;;1999.90;999.90;;;11.70;99.90;;;;;;4957969;28;20027;-93
2022/05/08 03:06:35;;;;;;;1999.90;999.90;;;11.80;99.90;;;;;;4966981;28;20479;-91
2022/05/08 03:09:00;;;;;;;1999.90;999.90;;;11.70;99.90;;;;;;4963777;28;20031;-93
2022/05/08 03:11:26;;;;;;;1999.90;999.90;;;11.70;99.90;;;;;;4970793;28;20045;-92
2022/05/08 03:13:53;;;;;;;1999.90;999.90;;;11.70;99.90;;;;;;4961084;28;20023;-91
2022/05/08 03:16:18;;;;;;;1999.90;999.90;;;11.70;99.90;;;;;;4962346;28;20106;-92
2022/05/08 03:18:45;;;;;;;1999.90;999.90;;;11.70;99.90;;;;;;4969511;28;20465;-91
2022/05/08 03:21:12;;;;;;;1999.90;999.90;;;11.70;99.90;;;;;;4965514;28;20131;-92
2022/05/08 03:23:39;;;;;;;1999.90;999.90;;;11.60;99.90;;;;;;4956595;28;20498;-93
2022/05/08 03:26:05;;;;;;;1999.90;999.90;;;11.60;99.90;;;;;;4964727;28;20027;-91
2022/05/08 03:28:32;;;;;;;1999.90;999.90;;;11.60;99.90;;;;;;4958217;28;20550;-92
2022/05/08 03:30:59;;;;;;;1999.90;999.90;;;11.60;99.90;;;;;;4962309;28;20487;-91
2022/05/08 03:33:25;;;;;;;1999.90;999.90;;;11.70;99.90;;;;;;4951198;28;20023;-91
2022/05/08 03:35:51;;;;;;;1999.90;999.90;;;11.60;99.90;;;;;;4967052;28;20035;-93
2022/05/08 03:38:18;;;;;;;1999.90;999.90;;;11.60;99.90;;;;;;4969327;28;20441;-90
2022/05/08 03:40:44;;;;;;;1999.90;999.90;;;11.60;99.90;;;;;;4964929;28;20510;-91
2022/05/08 03:43:09;;;;;;;1999.90;999.90;;;11.60;99.90;;;;;;4962565;28;20027;-92
2022/05/08 03:45:35;;;;;;;1999.90;999.90;;;11.60;99.90;;;;;;4962091;28;20043;-91
2022/05/08 03:48:02;;;;;;;1999.90;999.90;;;11.50;99.90;;;;;;4965027;28;20030;-91
2022/05/08 03:50:29;;;;;;;1999.90;999.90;;;11.50;99.90;;;;;;4965808;28;20027;-91
2022/05/08 03:52:58;;;;;;;1999.90;999.90;;;11.40;99.90;;;;;;4963133;28;20043;-90
2022/05/08 03:55:24;;;;;;;1999.90;999.90;;;11.40;99.90;;;;;;4967687;28;20031;-92
2022/05/08 03:57:50;;;;;;;1999.90;999.90;;;11.30;99.90;;;;;;4959355;28;20109;-91
2022/05/08 04:00:16;;;;;;;1999.90;999.90;;;11.30;99.90;;;;;;4963689;28;20030;-93
2022/05/08 04:02:43;;;;;;;1999.90;999.90;;;11.20;99.90;;;;;;4957205;28;20110;-93
2022/05/08 04:05:09;;;;;;;1999.90;999.90;;;11.20;99.90;;;;;;4960830;28;20541;-91
2022/05/08 04:07:37;;;;;;;1999.90;999.90;;;11.10;99.90;;;;;;4969625;28;20121;-93
2022/05/08 04:10:03;;;;;;;1999.90;999.90;;;11.10;99.90;;;;;;4963460;28;20031;-91
2022/05/08 04:12:29;;;;;;;1999.90;999.90;;;11.10;99.90;;;;;;4957209;28;20541;-93
2022/05/08 04:14:55;;;;;;;1999.90;999.90;;;11.00;99.90;;;;;;4965394;28;20111;-92
2022/05/08 04:17:20;;;;;;;1999.90;999.90;;;11.00;99.90;;;;;;4963908;28;20039;-92
2022/05/08 04:19:49;;;;;;;1999.90;999.90;;;11.00;99.90;;;;;;4962846;28;20031;-93
2022/05/08 04:24:59;;;;;;;1999.90;999.90;;;11.00;99.90;;;;;;4956952;28;20031;-91
2022/05/08 04:27:25;;;;;;;1999.90;999.90;;;11.00;99.90;;;;;;4958512;28;20398;-93
2022/05/08 04:29:50;;;;;;;1999.90;999.90;;;11.00;99.90;;;;;;4955399;28;20083;-91
2022/05/08 04:32:16;;;;;;;1999.90;999.90;;;11.00;99.90;;;;;;4953244;28;20031;-91
2022/05/08 04:34:42;;;;;;;1999.90;999.90;;;11.00;99.90;;;;;;4959386;28;20027;-92
2022/05/08 04:37:09;;;;;;;1999.90;999.90;;;10.90;99.90;;;;;;4968267;28;20077;-91
2022/05/08 04:39:35;;;;;;;1999.90;999.90;;;10.90;99.90;;;;;;4967387;28;20118;-93
2022/05/08 04:42:01;;;;;;;1999.90;999.90;;;10.90;99.90;;;;;;4967599;28;20490;-91
2022/05/08 04:44:27;;;;;;;1999.90;999.90;;;10.90;99.90;;;;;;4967465;28;20054;-93
2022/05/08 04:46:53;;;;;;;1999.90;999.90;;;11.00;99.90;;;;;;4967784;28;20093;-93
2022/05/08 04:49:19;;;;;;;1999.90;999.90;;;11.00;99.90;;;;;;4958224;28;20074;-93
2022/05/08 04:51:44;;;;;;;1999.90;999.90;;;11.00;99.90;;;;;;4960710;28;20062;-93
2022/05/08 04:54:10;;;;;;;1999.90;999.90;;;10.90;99.90;;;;;;4967244;28;20069;-92
2022/05/08 04:56:36;;;;;;;1999.90;999.90;;;11.00;99.90;;;;;;4963542;28;20500;-93
2022/05/08 04:59:02;;;;;;;1999.90;999.90;;;10.90;99.90;;;;;;4963530;28;20059;-91
2022/05/08 05:01:28;;;;;;;1999.90;999.90;;;10.90;99.90;;;;;;4954341;28;20118;-93
2022/05/08 05:03:56;;;;;;;1999.90;999.90;;;11.00;99.90;;;;;;4966290;28;20507;-92
2022/05/08 05:06:21;;;;;;;1999.90;999.90;;;11.00;99.90;;;;;;4960627;28;20410;-93
2022/05/08 05:08:47;;;;;;;1999.90;999.90;;;11.00;99.90;;;;;;4959163;28;20086;-91
2022/05/08 05:11:13;;;;;;;1999.90;999.90;;;11.00;99.90;;;;;;4954770;28;20102;-93
2022/05/08 05:13:39;;;;;;;1999.90;999.90;;;11.00;99.90;;;;;;4962937;28;20133;-92
2022/05/08 05:16:07;;;;;;;1999.90;999.90;;;11.00;99.90;;;;;;4958697;28;20454;-91
2022/05/08 05:18:33;;;;;;;1999.90;999.90;;;11.00;99.90;;;;;;4958443;28;20031;-93
2022/05/08 05:20:59;;;;;;;1999.90;999.90;;;11.00;99.90;;;;;;4959310;28;20030;-91
2022/05/08 05:23:25;;;;;;;1999.90;999.90;;;11.10;99.90;;;;;;4960170;28;20366;-93
2022/05/08 05:25:50;;;;;;;1999.90;999.90;;;11.10;99.90;;;;;;4969063;28;20682;-93
2022/05/08 05:28:17;;;;;;;1999.90;999.90;;;11.20;99.90;;;;;;4969001;28;20034;-92
2022/05/08 05:30:43;;;;;;;1999.90;999.90;;;11.20;99.90;;;;;;4964708;28;20031;-92
2022/05/08 05:33:10;;;;;;;1999.90;999.90;;;11.30;99.90;;;;;;4963197;28;20039;-91
2022/05/08 05:35:37;;;;;;;1999.90;999.90;;;11.30;99.90;;;;;;4961153;28;20050;-93
2022/05/08 05:38:03;;;;;;;1999.90;999.90;;;11.40;99.90;;;;;;4967874;28;20030;-93
2022/05/08 05:40:29;;;;;;;1999.90;999.90;;;11.50;99.90;;;;;;4967317;28;20032;-92
2022/05/08 05:42:57;;;;;;;1999.90;999.90;;;11.60;99.90;;;;;;4962877;28;20018;-93
2022/05/08 05:45:23;;;;;;;1999.90;999.90;;;11.70;99.90;;;;;;4967545;28;20037;-91
2022/05/08 05:47:49;;;;;;;1999.90;999.90;;;11.80;99.90;;;;;;4966818;28;20106;-93
2022/05/08 05:50:19;;;;;;;1999.90;999.90;;;11.90;99.90;;;;;;4967085;28;20138;-92
2022/05/08 05:52:45;;;;;;;1999.90;999.90;;;12.00;99.90;;;;;;4962389;28;20077;-90
2022/05/08 05:55:11;;;;;;;1999.90;999.90;;;12.10;99.90;;;;;;4958965;28;20114;-92
2022/05/08 05:57:38;;;;;;;1999.90;999.90;;;12.20;99.90;;;;;;4960963;28;20498;-90
2022/05/08 06:00:06;;;;;;;1999.90;999.90;;;12.30;99.90;;;;;;4961865;28;20024;-92
2022/05/08 06:02:31;;;;;;;1999.90;999.90;;;12.40;99.90;;;;;;4953197;28;20037;-91
2022/05/08 06:04:57;;;;;;;1999.90;999.90;;;12.60;99.90;;;;;;4967469;28;20487;-91
2022/05/08 06:07:23;;;;;;;1999.90;999.90;;;12.70;99.90;;;;;;4966495;28;20113;-93
2022/05/08 06:09:48;;;;;;;1999.90;999.90;;;12.80;99.90;;;;;;4961853;28;20561;-93
2022/05/08 06:12:14;;;;;;;1999.90;999.90;;;12.90;99.90;;;;;;4971111;28;20027;-92
2022/05/08 06:14:40;;;;;;;1999.90;999.90;;;13.00;99.90;;;;;;4966118;28;20058;-93
2022/05/08 06:17:06;;;;;;;1999.90;999.90;;;13.10;99.90;;;;;;4957893;28;20035;-90
2022/05/08 06:19:32;;;;;;;1999.90;999.90;;;13.20;99.90;;;;;;4966310;28;20494;-92
2022/05/08 06:21:58;;;;;;;1999.90;999.90;;;13.30;99.90;;;;;;4959219;28;20391;-91
2022/05/08 06:24:24;;;;;;;1999.90;999.90;;;13.40;99.90;;;;;;4963291;28;20042;-93
2022/05/08 06:26:49;;;;;;;1999.90;999.90;;;13.50;99.90;;;;;;4951182;29;20090;-93
2022/05/08 06:29:15;;;;;;;1999.90;999.90;;;13.60;99.90;;;;;;4962762;28;20030;-92
2022/05/08 06:31:41;;;;;;;1999.90;999.90;;;13.70;99.90;;;;;;4969374;28;20043;-92
2022/05/08 06:34:08;;;;;;;1999.90;999.90;;;13.80;99.90;;;;;;4967768;28;20059;-92
2022/05/08 06:36:33;;;;;;;1999.90;999.90;;;13.90;99.90;;;;;;4965398;28;20440;-90
2022/05/08 06:38:59;;;;;;;1999.90;999.90;;;14.00;99.90;;;;;;4966000;28;20110;-92
2022/05/08 06:41:26;;;;;;;1999.90;999.90;;;14.10;99.90;;;;;;4950457;28;20171;-90
2022/05/08 06:43:53;;;;;;;1999.90;999.90;;;14.20;99.90;;;;;;4966578;28;20019;-93
2022/05/08 06:46:19;;;;;;;1999.90;999.90;;;14.20;99.90;;;;;;4959024;28;20110;-92
2022/05/08 06:48:47;;;;;;;1999.90;999.90;;;14.30;99.90;;;;;;4966237;28;20043;-92
2022/05/08 06:51:13;;;;;;;1999.90;999.90;;;14.40;99.90;;;;;;4966327;28;20030;-92
2022/05/08 06:53:38;;;;;;;1999.90;999.90;;;14.60;99.90;;;;;;4966509;28;20070;-90
2022/05/08 06:56:05;;;;;;;1999.90;999.90;;;14.70;99.90;;;;;;4966729;28;20118;-90
2022/05/08 07:01:34;;;;;;;1999.90;999.90;;;14.80;99.90;;;;;;4961285;28;20280;-90
2022/05/08 07:04:04;;;;;;;1999.90;999.90;;;15.10;99.90;;;;;;4960188;28;20051;-92
2022/05/08 07:06:29;;;;;;;1999.90;999.90;;;15.20;99.90;;;;;;4965359;28;20035;-90
2022/05/08 07:08:56;;;;;;;1999.90;999.90;;;15.40;99.90;;;;;;4969595;28;20074;-93
2022/05/08 07:11:21;;;;;;;1999.90;999.90;;;15.50;99.90;;;;;;4960877;28;20031;-91
2022/05/08 07:13:47;;;;;;;1999.90;999.90;;;15.60;99.90;;;;;;4957082;28;20391;-91
2022/05/08 07:16:13;;;;;;;1999.90;999.90;;;15.80;99.90;;;;;;4957754;28;20061;-92
2022/05/08 07:18:39;;;;;;;1999.90;999.90;;;15.90;99.90;;;;;;4947161;28;20452;-91
2022/05/08 07:21:05;;;;;;;1999.90;999.90;;;16.00;99.90;;;;;;4958731;28;20102;-89
2022/05/08 07:23:34;;;;;;;1999.90;999.90;;;16.20;99.90;;;;;;4957521;28;20570;-92
2022/05/08 07:26:00;;;;;;;1999.90;999.90;;;16.30;99.90;;;;;;4958097;28;20026;-90
2022/05/08 07:28:27;;;;;;;1999.90;999.90;;;16.40;99.90;;;;;;4957417;28;20067;-92
2022/05/08 07:30:53;;;;;;;1999.90;999.90;;;16.50;99.90;;;;;;4960311;28;20061;-90
2022/05/08 07:33:19;;;;;;;1999.90;999.90;;;16.70;99.90;;;;;;4957353;28;20464;-92
2022/05/08 07:38:31;;;;;;;1999.90;999.90;;;17.10;99.90;;;;;;4956702;28;20037;-92
2022/05/08 07:40:58;;;;;;;1999.90;999.90;;;17.40;99.90;;;;;;4960925;28;20026;-92
2022/05/08 07:43:25;;;;;;;1999.90;999.90;;;17.80;99.90;;;;;;4965211;28;20026;-91
2022/05/08 07:45:50;;;;;;;1999.90;999.90;;;18.80;99.90;;;;;;4964577;28;20041;-92
2022/05/08 07:48:16;;;;;;;1999.90;999.90;;;21.80;99.90;;;;;;4965872;28;20031;-94
2022/05/08 07:50:42;;;;;;;1999.90;999.90;;;23.80;98.10;;;;;;4967883;28;20042;-92
2022/05/08 07:53:08;;;;;;;1999.90;999.90;;;24.60;96.20;;;;;;4962293;28;20051;-90
2022/05/08 07:55:34;;;;;;;1999.90;999.90;;;26.10;94.40;;;;;;4950759;28;20482;-93
2022/05/08 07:58:00;;;;;;;1999.90;999.90;;;27.10;93.20;;;;;;4958902;28;20032;-91
2022/05/08 08:00:26;;;;;;;1999.90;999.90;;;27.30;92.00;;;;;;4961202;28;20038;-94
2022/05/08 08:02:52;;;;;;;1999.90;999.90;;;27.60;91.60;;;;;;4966509;28;20023;-91
2022/05/08 08:05:18;;;;;;;1999.90;999.90;;;28.10;90.90;;;;;;4963805;28;20027;-94
2022/05/08 08:07:43;;;;;;;1999.90;999.90;;;28.60;90.30;;;;;;4957037;28;20024;-94
2022/05/08 08:10:09;;;;;;;1999.90;999.90;;;29.10;89.20;;;;;;4963697;28;20027;-90
2022/05/08 08:12:35;;;;;;;1999.90;999.90;;;29.40;88.40;;;;;;4967027;28;20502;-93
2022/05/08 08:15:01;;;;;;;1999.90;999.90;;;29.80;87.40;;;;;;4960503;28;20035;-91
2022/05/08 08:17:27;;;;;;;1999.90;999.90;;;29.80;86.50;;;;;;4957871;28;20491;-91
2022/05/08 08:19:54;;;;;;;1999.90;999.90;;;30.10;85.20;;;;;;4960696;28;20397;-94
2022/05/08 08:22:21;;;;;;;1999.90;999.90;;;30.40;84.70;;;;;;4962660;28;20031;-93
2022/05/08 08:24:47;;;;;;;1999.90;999.90;;;30.10;84.20;;;;;;4965041;28;20483;-93
2022/05/08 08:27:13;;;;;;;1999.90;999.90;;;30.90;82.90;;;;;;4969605;28;20027;-93
2022/05/08 08:29:38;;;;;;;1999.90;999.90;;;31.40;82.50;;;;;;4963885;28;20027;-94
2022/05/08 08:32:04;;;;;;;1999.90;999.90;;;31.60;81.80;;;;;;4960257;28;20035;-93
2022/05/08 08:34:31;;;;;;;1999.90;999.90;;;31.80;80.90;;;;;;4961368;28;20043;-93
2022/05/08 08:37:00;;;;;;;1999.90;999.90;;;32.20;81.00;;;;;;4958298;28;20032;-91
2022/05/08 08:39:25;;;;;;;1999.90;999.90;;;32.50;80.10;;;;;;4953567;28;20082;-94
2022/05/08 08:42:30;;;;;;;1999.90;999.90;;;32.50;78.50;;;;;;4968289;28;20034;-92
2022/05/08 08:48:03;;;;;;;1999.90;999.90;;;32.60;77.20;;;;;;4962189;28;20041;-89
2022/05/08 08:50:29;;;;;;;1999.90;999.90;;;33.50;76.20;;;;;;4962292;28;20105;-95
2022/05/08 08:52:57;;;;;;;1999.90;999.90;;;33.90;75.00;;;;;;4966188;28;20138;-92
2022/05/08 08:55:23;;;;;;;1999.90;999.90;;;33.90;74.70;;;;;;4967282;28;20050;-94
2022/05/08 08:57:50;;;;;;;1999.90;999.90;;;34.00;74.60;;;;;;4958953;28;20077;-93
2022/05/08 09:00:18;;;;;;;1999.90;999.90;;;33.40;74.20;;;;;;4968396;28;20023;-93
2022/05/08 09:02:44;;;;;;;1999.90;999.90;;;33.90;74.20;;;;;;4961999;28;20015;-91
2022/05/08 09:05:11;;;;;;;1999.90;999.90;;;33.90;73.80;;;;;;4964476;28;20034;-92
2022/05/08 09:07:47;;;;;;;1999.90;999.90;;;34.50;73.20;;;;;;4972336;28;20053;-91
2022/05/08 09:10:21;;;;;;;1999.90;999.90;;;34.20;72.40;;;;;;4962203;28;20027;-91
2022/05/08 09:12:52;;;;;;;1999.90;999.90;;;33.90;73.10;;;;;;4962129;28;20031;-93
2022/05/08 09:15:19;;;;;;;;;;;34.00;72.80;;;;;;4962582;28;20030;-91
2022/05/08 09:17:46;;;;;;;1999.90;999.90;;;34.40;72.00;;;;;;4963639;28;19914;-93
2022/05/08 09:20:33;;;;;;;1999.90;999.90;;;34.40;71.90;;;;;;4962316;28;20028;-90
2022/05/08 09:23:15;;;;;;;1999.90;999.90;;;34.00;71.00;;;;;;4965087;28;20090;-91
2022/05/08 09:25:59;;;;;;;;;;;34.50;72.40;;;;;;4961966;28;20023;-88
2022/05/08 09:28:31;;;;;;;1999.90;999.90;;;34.90;71.60;;;;;;4961518;28;19961;-90
2022/05/08 09:31:03;;;;;;;1999.90;999.90;;;35.10;69.70;;;;;;4965090;28;20026;-91
2022/05/08 09:33:37;;;;;;;1999.90;999.90;;;34.80;70.80;;;;;;4953257;28;20110;-89
2022/05/08 09:36:10;;;;;;;1999.90;999.90;;;34.70;69.90;;;;;;4967131;28;20035;-91
2022/05/08 09:38:42;;;;;;;1999.90;999.90;;;34.70;69.80;;;;;;4964029;28;20023;-90
2022/05/08 09:41:08;;;;;;;;;;;34.40;70.00;;;;;;4967954;28;20030;-91
2022/05/08 09:43:37;;;;;;;1999.90;999.90;;;34.30;70.50;;;;;;4970159;28;20464;-93
2022/05/08 09:46:04;;;;;;;1999.90;999.90;;;34.50;70.70;;;;;;4967426;28;20059;-91
2022/05/08 09:48:32;;;;;;;1999.90;999.90;;;34.70;70.70;;;;;;4962401;28;20121;-91
2022/05/08 09:51:06;;;;;;;1999.90;999.90;;;34.30;70.10;;;;;;4965291;28;20023;-91
2022/05/08 09:53:33;;;;;;;1999.90;999.90;;;34.40;70.80;;;;;;4966456;28;20086;-92
2022/05/08 09:56:02;;;;;;;1999.90;999.90;;;34.30;71.50;;;;;;4968546;28;20404;-93
2022/05/08 09:58:28;;;;;;;1999.90;999.90;;;34.20;70.40;;;;;;4963898;28;20561;-93
2022/05/08 10:00:57;;;;;;;1999.90;999.90;;;33.90;71.10;;;;;;4959432;28;20063;-92
2022/05/08 10:03:23;;;;;;;1999.90;999.90;;;34.50;70.70;;;;;;4963497;28;20437;-92
2022/05/08 10:05:50;;;;;;;1999.90;999.90;;;34.10;70.40;;;;;;4964921;28;20027;-93
2022/05/08 10:08:18;;;;;;;1999.90;999.90;;;33.80;70.30;;;;;;4964734;28;20063;-92
2022/05/08 10:13:53;;;;;;;1999.90;999.90;;;33.50;71.40;;;;;;4967074;28;20120;-92
2022/05/08 10:16:48;;;;;;;1999.90;999.90;;;33.20;71.30;;;;;;4964826;28;20114;-93
2022/05/08 10:19:19;;;;;;;1999.90;999.90;;;33.70;70.00;;;;;;4969457;28;20038;-92
2022/05/08 10:22:03;;;;;;;;;;;32.90;71.10;;;;;;4969398;28;20486;-91
2022/05/08 10:24:33;;;;;;;1999.90;999.90;;;31.90;72.20;;;;;;4966798;28;19906;-91
2022/05/08 10:27:27;;;;;;;1999.90;999.90;;;31.80;71.80;;;;;;4970465;28;20097;-92
2022/05/08 10:29:53;;;;;;;1999.90;999.90;;;32.90;72.30;;;;;;4966384;28;20371;-92
2022/05/08 10:32:28;;;;;;;1999.90;999.90;;;33.20;71.10;;;;;;4967498;28;20661;-91
2022/05/08 10:35:20;;;;;;;1999.90;999.90;;;32.70;70.20;;;;;;4960434;28;20031;-91
2022/05/08 10:37:59;;;;;;;1999.90;999.90;;;33.30;71.00;;;;;;4962338;28;20113;-93
2022/05/08 10:40:25;;;;;;;1999.90;999.90;;;33.30;70.20;;;;;;4966786;28;20494;-93
2022/05/08 10:43:10;;;;;;;1999.90;999.90;;;33.20;70.40;;;;;;4967035;28;20027;-94
2022/05/08 10:45:39;;;;;;;1999.90;999.90;;;33.50;69.70;;;;;;4961597;28;20023;-92
2022/05/08 10:48:17;;;;;;;1999.90;999.90;;;32.70;69.30;;;;;;4959064;28;20038;-92
2022/05/08 10:50:48;;;;;;;1999.90;999.90;;;31.80;70.20;;;;;;4960988;28;20513;-92
2022/05/08 10:53:32;;;;;;;1999.90;999.90;;;29.50;73.50;;;;;;4957650;28;20050;-94
2022/05/08 10:56:02;;;;;;;1999.90;999.90;;;29.60;72.60;;;;;;4964602;28;20031;-93
2022/05/08 10:58:28;;;;;;;1999.90;999.90;;;30.80;72.40;;;;;;4963000;28;20118;-94
2022/05/08 11:00:58;;;;;;;1999.90;999.90;;;32.20;70.90;;;;;;4957077;28;20062;-94
2022/05/08 11:03:25;;;;;;;1999.90;999.90;;;31.40;72.00;;;;;;4961681;28;20026;-93
2022/05/08 11:05:52;;;;;;;1999.90;999.90;;;31.70;70.50;;;;;;4963346;28;20034;-93
2022/05/08 11:08:31;;;;;;;1999.90;999.90;;;30.80;70.80;;;;;;4964209;28;20024;-96
2022/05/08 11:11:10;;;;;;;1999.90;999.90;;;31.20;72.20;;;;;;4961640;28;20027;-94
2022/05/08 11:13:42;;;;;;;1999.90;999.90;;;32.10;71.50;;;;;;4962878;28;20053;-95
2022/05/08 11:16:09;;;;;;;1999.90;999.90;;;33.20;70.30;;;;;;4967855;28;20094;-94
2022/05/08 11:18:35;;;;;;;1999.90;999.90;;;33.20;70.70;;;;;;4969747;28;20061;-95
2022/05/08 11:21:03;;;;;;;1999.90;999.90;;;31.60;70.80;;;;;;4966339;28;20526;-94
2022/05/08 11:23:40;;;;;;;1999.90;999.90;;;29.60;71.40;;;;;;4956364;28;20085;-93
2022/05/08 11:26:11;;;;;;;1999.90;999.90;;;28.50;73.60;;;;;;4959670;28;20035;-94
2022/05/08 11:28:50;;;;;;;1999.90;999.90;;;29.60;72.40;;;;;;4957909;28;20035;-94
2022/05/08 11:31:19;;;;;;;1999.90;999.90;;;29.80;71.50;;;;;;4963035;28;20114;-95
2022/05/08 11:36:35;;;;;;;1999.90;999.90;;;31.80;71.70;;;;;;4971125;28;20081;-91
2022/05/08 11:39:00;;;;;;;1999.90;999.90;;;31.30;72.90;;;;;;4966134;28;20031;-95
2022/05/08 11:41:33;;;;;;;1999.90;999.90;;;30.60;71.40;;;;;;4969854;28;20033;-94
2022/05/08 11:44:02;;;;;;;1999.90;999.90;;;30.70;72.50;;;;;;4965253;28;20035;-93
2022/05/08 11:46:55;;;;;;;1999.90;999.90;;;30.40;72.10;;;;;;4958648;28;20034;-96
2022/05/08 11:49:42;;;;;;;1999.90;999.90;;;29.90;71.10;;;;;;4951154;28;20080;-95
2022/05/08 11:52:20;;;;;;;1999.90;999.90;;;29.30;73.10;;;;;;4965254;28;20541;-89
2022/05/08 11:54:59;;;;;;;1999.90;999.90;;;29.30;73.80;;;;;;4969044;28;20534;-94
2022/05/08 11:57:25;;;;;;;1999.90;999.90;;;29.50;73.70;;;;;;4965551;28;20077;-94
2022/05/08 11:59:52;;;;;;;1999.90;999.90;;;28.70;72.90;;;;;;4959071;28;20027;-92
2022/05/08 12:02:36;;;;;;;1999.90;999.90;;;29.10;75.50;;;;;;4957522;28;20035;-93
2022/05/08 12:05:01;;;;;;;1999.90;999.90;;;29.80;73.00;;;;;;4961344;28;20113;-94
2022/05/08 12:07:38;;;;;;;1999.90;999.90;;;29.80;72.70;;;;;;4968645;28;20109;-94
2022/05/08 12:10:04;;;;;;;1999.90;999.90;;;29.90;73.40;;;;;;4960477;28;20027;-93
2022/05/08 12:12:35;;;;;;;1999.90;999.90;;;28.70;74.00;;;;;;4973380;28;20023;-94
2022/05/08 12:15:07;;;;;;;1999.90;999.90;;;27.40;75.50;;;;;;4960317;28;20039;-93
2022/05/08 12:17:42;;;;;;;1999.90;999.90;;;26.80;75.50;;;;;;4956244;28;20027;-93
2022/05/08 12:20:19;;;;;;;1999.90;999.90;;;26.20;77.70;;;;;;4956222;28;20085;-93
2022/05/08 12:22:56;;;;;;;1999.90;999.90;;;26.00;76.50;;;;;;4967767;28;20030;-93
2022/05/08 12:25:22;;;;;;;1999.90;999.90;;;26.40;76.20;;;;;;4954335;28;20367;-94
2022/05/08 12:27:48;;;;;;;1999.90;999.90;;;26.50;75.00;;;;;;4967100;28;20031;-94